Terminal Aerodrome Forecast
Issued by NWS

Home | Current Version | Previous Version | Text Only | Print | Product List | Glossary On
Versions: 1 2 3 4 5 6 7 8 9 10 11 12 13 14 15
557
FTUS41 KLWX 011318 AAA
TAFMTN
TAF AMD
KMTN 011318Z 0113/0212 14007KT P6SM -RA OVC015
     FM011600 15008KT 3SM -RA OVC008
     FM011800 14007KT P6SM OVC008
     FM012100 12005KT P6SM -SHRA OVC008
     FM020300 07004KT 3SM -SHRA BKN003
     FM020900 07004KT 3SM BR OVC008
     FM021100 15005KT 3SM BR OVC008=

USA.gov is the U.S. government's official web portal to all federal, state and local government web resources and services.